Time;durP1;ratioP1;P1;durP2;ratioP2;P2;SDS_P1;SDS_P2;PMS_P1;PMS_P2;Temp;Humidity;BMP_temperature;BMP_pressure;BME280_temperature;BME280_humidity;BME280_pressure;Samples;Min_cycle;Max_cycle;Signal;HPM_P1;HPM_P2
2021/01/01 00:01:58;;;;;;;98.83;55.50;;;2.10;60.90;;;;;;6161399;23;20001;-85
2021/01/01 00:04:24;;;;;;;97.70;53.23;;;2.10;60.80;;;;;;6161717;23;20001;-85
2021/01/01 00:06:50;;;;;;;91.97;54.37;;;2.10;60.70;;;;;;6160965;23;20005;-85
2021/01/01 00:09:17;;;;;;;101.93;53.37;;;2.00;60.90;;;;;;6190474;23;20040;-85
2021/01/01 00:11:47;;;;;;;100.37;53.23;;;2.00;60.80;;;;;;6187614;23;20009;-85
2021/01/01 00:14:13;;;;;;;110.73;59.70;;;2.00;60.90;;;;;;6160265;23;20008;-85
2021/01/01 00:16:40;;;;;;;111.00;60.97;;;1.90;60.80;;;;;;6160327;23;20088;-85
2021/01/01 00:19:06;;;;;;;110.90;60.40;;;1.90;60.90;;;;;;6161553;23;20016;-85
2021/01/01 00:21:32;;;;;;;100.63;58.90;;;1.90;61.10;;;;;;6160527;23;20012;-85
2021/01/01 00:23:59;;;;;;;113.30;60.87;;;1.80;61.10;;;;;;6162642;23;20005;-85
2021/01/01 00:26:25;;;;;;;106.10;58.90;;;1.80;61.20;;;;;;6162025;23;20012;-85
2021/01/01 00:28:51;;;;;;;104.13;56.90;;;1.80;61.30;;;;;;6161204;23;20372;-85
2021/01/01 00:31:22;;;;;;;94.93;50.20;;;1.80;61.50;;;;;;6160008;23;20012;-85
2021/01/01 00:33:49;;;;;;;85.50;48.17;;;1.70;61.50;;;;;;6158801;23;20040;-85
2021/01/01 00:36:16;;;;;;;85.27;48.77;;;1.70;61.80;;;;;;6159676;23;20008;-85
2021/01/01 00:38:46;;;;;;;99.00;51.73;;;1.70;61.60;;;;;;6160038;23;20005;-85
2021/01/01 00:41:19;;;;;;;99.80;52.67;;;1.70;61.70;;;;;;6160684;23;20020;-85
2021/01/01 00:43:44;;;;;;;83.70;49.92;;;1.70;61.80;;;;;;6162622;23;20013;-85
2021/01/01 00:46:10;;;;;;;92.23;50.17;;;1.60;61.80;;;;;;6161387;23;20028;-85
2021/01/01 00:48:36;;;;;;;83.93;46.93;;;1.60;62.00;;;;;;6164298;23;20031;-85
2021/01/01 00:51:01;;;;;;;79.97;47.40;;;1.50;62.00;;;;;;6165057;23;20043;-85
2021/01/01 00:53:27;;;;;;;65.33;38.17;;;1.50;62.00;;;;;;6166230;23;20368;-85
2021/01/01 00:55:53;;;;;;;75.27;42.40;;;1.50;62.30;;;;;;6166004;23;20016;-85
2021/01/01 00:58:19;;;;;;;74.07;43.20;;;1.50;62.40;;;;;;6162561;23;20225;-85
2021/01/01 01:00:44;;;;;;;81.87;45.43;;;1.50;62.30;;;;;;6188741;23;20002;-85
2021/01/01 01:03:10;;;;;;;73.63;41.87;;;1.50;62.10;;;;;;6160779;23;20024;-85
2021/01/01 01:05:36;;;;;;;70.13;40.33;;;1.50;62.30;;;;;;6161444;23;20009;-85
2021/01/01 01:08:01;;;;;;;65.73;36.03;;;1.50;62.30;;;;;;6186098;23;20020;-84
2021/01/01 01:10:27;;;;;;;57.57;33.03;;;1.40;62.50;;;;;;6160212;23;20005;-84
2021/01/01 01:12:53;;;;;;;58.93;34.33;;;1.40;62.70;;;;;;6160124;23;20466;-85
2021/01/01 01:15:19;;;;;;;56.87;32.37;;;1.40;62.60;;;;;;6159945;23;20007;-84
2021/01/01 01:17:44;;;;;;;54.90;29.27;;;1.40;62.60;;;;;;6159131;23;20020;-85
2021/01/01 01:20:11;;;;;;;51.43;27.33;;;1.40;62.70;;;;;;6161614;23;20443;-84
2021/01/01 01:22:36;;;;;;;46.07;27.80;;;1.40;62.70;;;;;;6162673;23;20335;-85
2021/01/01 01:25:03;;;;;;;48.47;26.47;;;1.40;62.70;;;;;;6163978;23;20241;-85
2021/01/01 01:27:29;;;;;;;47.73;25.60;;;1.40;62.70;;;;;;6162686;23;20005;-85
2021/01/01 01:29:55;;;;;;;38.53;23.23;;;1.30;62.70;;;;;;6161018;23;20380;-85
2021/01/01 01:32:20;;;;;;;56.13;24.43;;;1.30;62.80;;;;;;6159457;23;20032;-85
2021/01/01 01:34:46;;;;;;;37.83;22.03;;;1.30;62.60;;;;;;6160294;23;20042;-85
2021/01/01 01:37:12;;;;;;;44.93;22.80;;;1.30;62.50;;;;;;6161813;23;20009;-85
2021/01/01 01:39:37;;;;;;;45.90;23.67;;;1.40;63.00;;;;;;6161165;23;20005;-85
2021/01/01 01:42:04;;;;;;;34.27;20.73;;;1.50;62.70;;;;;;6159930;23;20451;-85
2021/01/01 01:44:30;;;;;;;34.83;19.00;;;1.30;62.60;;;;;;6159554;23;20055;-84
2021/01/01 01:46:55;;;;;;;27.73;15.73;;;1.30;62.90;;;;;;6160026;23;20005;-84
2021/01/01 01:49:22;;;;;;;30.53;15.23;;;1.30;62.80;;;;;;6159153;23;20375;-85
2021/01/01 01:51:48;;;;;;;26.00;15.60;;;1.30;63.00;;;;;;6158065;23;20155;-85
2021/01/01 01:54:18;;;;;;;26.90;15.43;;;1.30;63.10;;;;;;6157945;23;20348;-84
2021/01/01 01:56:45;;;;;;;34.53;18.67;;;1.30;63.10;;;;;;6158840;23;20005;-85
2021/01/01 01:59:15;;;;;;;32.50;17.30;;;1.40;63.00;;;;;;6159338;23;20687;-85
2021/01/01 02:01:41;;;;;;;39.10;18.93;;;1.40;62.90;;;;;;6157766;23;20001;-84
2021/01/01 02:04:07;;;;;;;24.83;14.37;;;1.40;62.90;;;;;;6158461;23;20737;-84
2021/01/01 02:06:33;;;;;;;29.60;14.90;;;1.40;62.80;;;;;;6185084;23;20005;-85
2021/01/01 02:09:00;;;;;;;26.03;13.63;;;1.40;63.00;;;;;;6159580;23;20013;-85
2021/01/01 02:11:26;;;;;;;26.50;15.00;;;1.50;63.00;;;;;;6158658;23;20380;-85
2021/01/01 02:13:56;;;;;;;30.27;16.10;;;1.50;63.10;;;;;;6159290;23;20239;-85
2021/01/01 02:16:25;;;;;;;32.30;16.93;;;1.50;63.00;;;;;;6159194;23;20425;-85
2021/01/01 02:18:51;;;;;;;32.13;17.70;;;1.50;62.90;;;;;;6157514;23;20017;-85
2021/01/01 02:21:18;;;;;;;34.13;17.63;;;1.40;62.90;;;;;;6184519;23;20078;-85
2021/01/01 02:23:45;;;;;;;35.07;19.33;;;1.40;62.90;;;;;;6159692;23;20009;-85
2021/01/01 02:26:11;;;;;;;42.50;22.30;;;1.30;62.90;;;;;;6187108;23;20247;-85
2021/01/01 02:28:37;;;;;;;38.43;18.77;;;1.30;63.10;;;;;;6187527;23;20306;-85
2021/01/01 02:31:03;;;;;;;38.67;19.20;;;1.20;63.10;;;;;;6182404;23;20016;-85
2021/01/01 02:33:29;;;;;;;38.53;17.37;;;1.20;63.30;;;;;;6157964;23;20004;-85
2021/01/01 02:35:55;;;;;;;35.57;18.03;;;1.20;63.50;;;;;;6158285;23;20284;-85
2021/01/01 02:38:21;;;;;;;34.93;17.43;;;1.20;63.40;;;;;;6162054;23;20024;-85
2021/01/01 02:40:46;;;;;;;35.03;17.93;;;1.20;63.50;;;;;;6167702;23;20322;-85
2021/01/01 02:43:12;;;;;;;32.20;18.03;;;1.20;63.40;;;;;;6193028;23;20309;-85
2021/01/01 02:45:38;;;;;;;24.50;13.40;;;1.30;63.40;;;;;;6192347;23;20004;-85
2021/01/01 02:48:20;;;;;;;21.17;11.07;;;1.30;63.20;;;;;;6191773;23;20009;-85
2021/01/01 02:50:46;;;;;;;19.85;11.40;;;1.30;63.10;;;;;;6191717;23;20083;-85
2021/01/01 02:53:13;;;;;;;20.80;10.70;;;1.30;62.90;;;;;;6217274;23;20056;-84
2021/01/01 02:55:39;;;;;;;18.63;10.03;;;1.30;62.90;;;;;;6189378;23;20058;-85
2021/01/01 02:58:05;;;;;;;21.23;10.63;;;1.30;62.80;;;;;;6193376;23;20235;-85
2021/01/01 03:00:33;;;;;;;18.67;9.13;;;1.20;62.80;;;;;;6188974;23;20263;-85
2021/01/01 03:02:59;;;;;;;16.90;9.30;;;1.20;62.90;;;;;;6189010;23;20223;-85
2021/01/01 03:05:25;;;;;;;15.77;10.00;;;1.20;63.00;;;;;;6216686;23;20423;-85
2021/01/01 03:07:51;;;;;;;16.03;9.40;;;1.20;63.10;;;;;;6188464;23;20447;-85
2021/01/01 03:10:18;;;;;;;15.47;9.10;;;1.20;63.20;;;;;;6187621;23;20510;-85
2021/01/01 03:12:44;;;;;;;16.47;9.20;;;1.20;63.30;;;;;;6217268;23;20001;-85
2021/01/01 03:15:10;;;;;;;19.37;10.43;;;1.30;63.10;;;;;;6187109;23;20355;-85
2021/01/01 03:17:36;;;;;;;19.07;11.43;;;1.30;63.00;;;;;;6186396;23;20420;-85
2021/01/01 03:20:03;;;;;;;25.10;12.50;;;1.20;62.90;;;;;;6187294;23;20239;-85
2021/01/01 03:22:29;;;;;;;21.83;11.63;;;1.20;63.10;;;;;;6186554;23;20005;-85
2021/01/01 03:24:54;;;;;;;22.73;11.33;;;1.10;63.00;;;;;;6187496;23;20004;-85
2021/01/01 03:27:20;;;;;;;21.43;11.03;;;1.10;63.00;;;;;;6187556;23;20134;-85
2021/01/01 03:29:46;;;;;;;19.63;11.20;;;1.20;63.20;;;;;;6189050;23;20043;-85
2021/01/01 03:32:12;;;;;;;22.10;10.33;;;1.20;63.10;;;;;;6188234;23;20272;-85
2021/01/01 03:34:37;;;;;;;20.10;10.50;;;1.20;63.00;;;;;;6188372;23;20012;-85
2021/01/01 03:37:03;;;;;;;23.43;11.20;;;1.20;63.20;;;;;;6186893;23;20007;-85
2021/01/01 03:39:29;;;;;;;23.37;11.13;;;1.20;63.10;;;;;;6214900;23;20012;-85
2021/01/01 03:41:54;;;;;;;20.63;10.83;;;1.20;63.00;;;;;;6170602;23;20040;-85
2021/01/01 03:44:20;;;;;;;23.50;12.93;;;1.30;62.90;;;;;;6185911;23;20001;-85
2021/01/01 03:46:46;;;;;;;30.80;15.73;;;1.20;62.80;;;;;;6157926;23;20013;-85
2021/01/01 03:49:11;;;;;;;32.20;16.03;;;1.20;62.90;;;;;;6158800;23;20005;-85
2021/01/01 03:51:37;;;;;;;31.63;15.13;;;1.20;62.90;;;;;;6159442;23;20005;-85
2021/01/01 03:54:03;;;;;;;24.53;12.67;;;1.20;62.70;;;;;;6185053;23;20338;-85
2021/01/01 03:56:29;;;;;;;18.13;11.20;;;1.10;63.10;;;;;;6159301;23;20872;-85
2021/01/01 03:58:54;;;;;;;19.37;10.60;;;1.10;63.20;;;;;;6159348;23;20160;-85
2021/01/01 04:01:20;;;;;;;20.50;12.03;;;1.10;63.20;;;;;;6158381;23;20012;-85
2021/01/01 04:03:46;;;;;;;21.37;11.30;;;1.00;63.20;;;;;;6159408;23;20005;-85
2021/01/01 04:06:11;;;;;;;25.90;12.27;;;1.00;63.40;;;;;;6159215;23;20096;-84
2021/01/01 04:08:37;;;;;;;24.93;13.70;;;1.10;63.50;;;;;;6159190;23;20005;-84
2021/01/01 04:11:03;;;;;;;26.63;11.37;;;1.10;63.50;;;;;;6186496;23;20032;-84
2021/01/01 04:13:29;;;;;;;23.60;13.23;;;1.10;63.30;;;;;;6185996;23;19997;-85
2021/01/01 04:15:55;;;;;;;22.70;13.03;;;1.10;63.30;;;;;;6159909;23;20004;-84
2021/01/01 04:18:21;;;;;;;17.30;9.73;;;1.00;63.40;;;;;;6187150;23;20224;-85
2021/01/01 04:20:47;;;;;;;17.07;9.97;;;1.00;63.50;;;;;;6161632;23;20012;-85
2021/01/01 04:23:13;;;;;;;25.93;14.70;;;1.00;63.50;;;;;;6161911;23;20005;-85
2021/01/01 04:25:38;;;;;;;29.27;17.90;;;0.80;63.30;;;;;;6188633;23;20325;-85
2021/01/01 04:28:04;;;;;;;41.50;21.20;;;0.70;63.90;;;;;;6175759;23;20040;-85
2021/01/01 04:30:30;;;;;;;39.73;22.07;;;0.70;63.80;;;;;;6182848;23;20028;-84
2021/01/01 04:32:56;;;;;;;40.23;21.07;;;0.70;64.30;;;;;;6184053;23;20256;-84
2021/01/01 04:35:21;;;;;;;30.97;17.13;;;0.70;64.40;;;;;;6182881;23;20013;-85
2021/01/01 04:37:47;;;;;;;30.97;16.10;;;0.70;64.60;;;;;;6209509;23;20379;-84
2021/01/01 04:40:13;;;;;;;26.73;13.47;;;0.80;64.80;;;;;;6208047;23;20035;-84
2021/01/01 04:42:39;;;;;;;27.93;14.53;;;0.80;64.60;;;;;;6165824;23;20389;-84
2021/01/01 04:45:06;;;;;;;21.17;11.40;;;0.80;64.50;;;;;;6189395;23;20282;-84
2021/01/01 04:47:32;;;;;;;24.57;11.90;;;0.80;64.40;;;;;;6164733;23;20001;-85
2021/01/01 04:50:02;;;;;;;22.37;12.70;;;0.90;64.50;;;;;;6163378;23;20236;-84
2021/01/01 04:52:32;;;;;;;24.40;13.03;;;0.90;64.20;;;;;;6163041;23;20236;-84
2021/01/01 04:54:59;;;;;;;24.97;12.73;;;0.90;64.20;;;;;;6161272;23;20267;-85
2021/01/01 04:57:25;;;;;;;22.87;11.07;;;0.80;64.10;;;;;;6160892;23;20338;-84
2021/01/01 04:59:51;;;;;;;16.60;8.13;;;0.80;64.20;;;;;;6189261;23;20228;-85
2021/01/01 05:02:17;;;;;;;14.43;7.80;;;0.80;64.10;;;;;;6162773;23;20236;-85
2021/01/01 05:04:49;;;;;;;12.30;5.57;;;0.80;64.10;;;;;;6187850;23;20630;-84
2021/01/01 05:07:19;;;;;;;16.63;8.18;;;0.80;64.10;;;;;;6161454;23;20047;-85
2021/01/01 05:09:45;;;;;;;14.30;7.10;;;0.90;64.30;;;;;;6159916;23;20091;-85
2021/01/01 05:12:12;;;;;;;14.30;6.33;;;0.90;64.20;;;;;;6161151;23;21024;-85
2021/01/01 05:14:39;;;;;;;21.90;12.13;;;0.90;64.20;;;;;;6160026;23;20290;-85
2021/01/01 05:17:05;;;;;;;30.20;15.73;;;0.90;64.00;;;;;;6159672;23;20908;-85
2021/01/01 05:19:49;;;;;;;29.67;16.60;;;0.80;63.90;;;;;;6160500;23;20250;-85
2021/01/01 05:22:16;;;;;;;29.60;17.27;;;0.80;64.10;;;;;;6161056;23;20273;-85
2021/01/01 05:24:46;;;;;;;31.63;19.17;;;0.80;64.10;;;;;;6162933;23;20789;-85
2021/01/01 05:27:18;;;;;;;34.97;18.50;;;0.80;64.00;;;;;;6186499;23;20264;-85
2021/01/01 05:29:55;;;;;;;33.88;19.13;;;0.80;64.00;;;;;;6161630;23;20251;-85
2021/01/01 05:32:25;;;;;;;31.97;17.33;;;0.80;63.90;;;;;;6159940;23;20448;-85
2021/01/01 05:34:53;;;;;;;33.60;18.30;;;0.80;64.00;;;;;;6188016;23;20675;-85
2021/01/01 05:37:30;;;;;;;34.00;17.33;;;0.80;63.90;;;;;;6158249;23;20611;-84
2021/01/01 05:40:14;;;;;;;32.80;17.73;;;0.80;63.90;;;;;;6158619;23;20795;-84
2021/01/01 05:42:40;;;;;;;30.57;16.90;;;0.80;63.90;;;;;;6156998;23;20707;-84
2021/01/01 05:45:14;;;;;;;27.37;16.63;;;0.80;63.90;;;;;;6185361;23;20312;-84
2021/01/01 05:47:40;;;;;;;30.10;16.17;;;0.80;63.90;;;;;;6158508;23;20009;-84
2021/01/01 05:50:07;;;;;;;31.90;16.23;;;0.80;64.00;;;;;;6158560;23;20236;-84
2021/01/01 05:52:32;;;;;;;36.50;19.10;;;0.80;63.80;;;;;;6184339;23;20239;-84
2021/01/01 05:55:00;;;;;;;31.37;18.63;;;0.80;63.80;;;;;;6157180;23;20806;-84
2021/01/01 05:57:39;;;;;;;36.77;18.90;;;0.80;63.80;;;;;;6158332;23;20052;-84
2021/01/01 06:00:14;;;;;;;31.97;18.87;;;0.80;63.90;;;;;;6157696;23;20621;-84
2021/01/01 06:02:41;;;;;;;31.67;18.93;;;0.80;63.80;;;;;;6158140;23;20295;-84
2021/01/01 06:05:11;;;;;;;28.83;15.17;;;0.70;63.90;;;;;;6158086;23;21109;-84
2021/01/01 06:07:39;;;;;;;30.20;16.47;;;0.80;63.90;;;;;;6181927;23;20312;-84
2021/01/01 06:10:06;;;;;;;29.67;16.27;;;0.80;64.10;;;;;;6159365;23;20233;-84
2021/01/01 06:12:35;;;;;;;28.20;16.20;;;0.80;64.00;;;;;;6183719;23;20320;-84
2021/01/01 06:15:02;;;;;;;28.93;17.03;;;0.80;63.80;;;;;;6157543;23;20252;-84
2021/01/01 06:17:44;;;;;;;32.50;19.03;;;0.80;63.90;;;;;;6184075;23;20239;-84
2021/01/01 06:20:17;;;;;;;33.07;17.57;;;0.70;63.80;;;;;;6157331;23;20256;-84
2021/01/01 06:22:57;;;;;;;31.60;16.83;;;0.60;63.90;;;;;;6159109;23;20651;-84
2021/01/01 06:25:23;;;;;;;28.70;17.37;;;0.60;64.10;;;;;;6156731;23;20951;-84
2021/01/01 06:27:49;;;;;;;31.23;19.03;;;0.60;64.10;;;;;;6158555;23;20560;-84
2021/01/01 06:30:17;;;;;;;35.33;19.93;;;0.60;64.20;;;;;;6184806;23;20311;-84
2021/01/01 06:32:43;;;;;;;41.83;21.57;;;0.60;64.20;;;;;;6156215;23;20433;-84
2021/01/01 06:35:13;;;;;;;41.53;21.20;;;0.60;64.20;;;;;;6184619;23;20271;-84
2021/01/01 06:37:39;;;;;;;42.50;22.70;;;0.60;64.20;;;;;;6156968;23;20243;-84
2021/01/01 06:40:25;;;;;;;45.27;22.90;;;0.60;64.30;;;;;;6158278;23;20228;-84
2021/01/01 06:42:58;;;;;;;37.90;21.97;;;0.50;64.40;;;;;;6136047;23;20009;-84
2021/01/01 06:45:40;;;;;;;40.43;22.17;;;0.50;64.50;;;;;;6158934;23;20236;-84
2021/01/01 06:48:06;;;;;;;39.67;20.93;;;0.60;64.50;;;;;;6156893;23;20236;-85
2021/01/01 06:50:43;;;;;;;34.70;20.10;;;0.60;64.20;;;;;;6158139;23;20320;-85
2021/01/01 06:53:25;;;;;;;37.30;20.27;;;0.70;64.30;;;;;;6157632;23;20023;-84
2021/01/01 06:55:51;;;;;;;36.55;18.83;;;0.70;64.20;;;;;;6157960;23;20253;-84
2021/01/01 06:58:26;;;;;;;38.67;21.63;;;0.70;64.20;;;;;;6183981;23;19997;-84
2021/01/01 07:00:53;;;;;;;35.87;20.03;;;0.70;64.20;;;;;;6157859;23;20232;-85
2021/01/01 07:03:27;;;;;;;36.57;21.83;;;0.70;64.20;;;;;;6184498;23;20236;-83
2021/01/01 07:05:54;;;;;;;32.40;19.20;;;0.70;64.20;;;;;;6157765;23;20766;-84
2021/01/01 07:08:42;;;;;;;36.80;19.60;;;0.80;64.20;;;;;;6184023;23;20259;-84
2021/01/01 07:11:13;;;;;;;31.00;18.00;;;0.80;64.20;;;;;;6157338;23;20224;-84
2021/01/01 07:13:45;;;;;;;29.23;17.63;;;0.80;64.10;;;;;;6157631;23;20232;-84
2021/01/01 07:16:12;;;;;;;29.67;16.48;;;0.80;64.00;;;;;;6183502;23;20252;-85
2021/01/01 07:18:38;;;;;;;34.07;17.97;;;0.80;64.20;;;;;;6157137;23;20001;-85
2021/01/01 07:21:07;;;;;;;31.07;17.53;;;0.80;64.10;;;;;;6158065;23;20232;-85
2021/01/01 07:23:33;;;;;;;52.67;26.70;;;0.80;64.20;;;;;;6157956;23;20236;-85
2021/01/01 07:26:00;;;;;;;100.83;45.43;;;0.90;64.20;;;;;;6157907;23;20232;-85
2021/01/01 07:28:27;;;;;;;69.27;33.20;;;0.90;64.20;;;;;;6184985;23;20000;-85
2021/01/01 07:30:55;;;;;;;64.90;34.03;;;1.00;64.10;;;;;;6185275;23;20229;-84
2021/01/01 07:33:23;;;;;;;59.23;35.43;;;1.00;64.10;;;;;;6160586;23;20025;-84
2021/01/01 07:35:59;;;;;;;60.17;34.03;;;1.00;64.20;;;;;;6158999;23;20343;-84
2021/01/01 07:38:26;;;;;;;38.67;24.40;;;1.00;64.20;;;;;;6159387;23;20280;-84
2021/01/01 07:40:52;;;;;;;41.90;23.43;;;1.00;64.20;;;;;;6163032;23;20291;-84
2021/01/01 07:43:19;;;;;;;43.17;25.00;;;1.00;64.20;;;;;;6215183;23;19996;-84
2021/01/01 07:45:45;;;;;;;41.37;23.60;;;1.10;64.40;;;;;;6189437;23;20028;-84
2021/01/01 07:48:11;;;;;;;43.73;23.80;;;1.10;64.40;;;;;;6189632;23;20262;-84
2021/01/01 07:50:38;;;;;;;40.07;23.07;;;1.10;64.30;;;;;;6188732;23;20011;-84
2021/01/01 07:53:09;;;;;;;40.13;22.20;;;1.20;64.40;;;;;;6187372;23;20683;-84
2021/01/01 07:55:35;;;;;;;41.83;25.07;;;1.20;64.40;;;;;;6187936;23;20283;-83
2021/01/01 07:58:05;;;;;;;45.57;26.57;;;1.20;64.50;;;;;;6186798;23;20290;-84
2021/01/01 08:00:34;;;;;;;127.87;58.70;;;1.20;64.50;;;;;;6187154;23;20015;-83
2021/01/01 08:03:00;;;;;;;67.90;32.77;;;1.30;64.50;;;;;;6215471;23;20300;-83
2021/01/01 08:05:27;;;;;;;49.73;27.93;;;1.20;64.60;;;;;;6189358;23;20243;-83
2021/01/01 08:07:52;;;;;;;41.07;24.10;;;1.30;64.60;;;;;;6189245;23;20039;-83
2021/01/01 08:10:32;;;;;;;43.50;24.70;;;1.30;64.60;;;;;;6189894;23;20610;-83
2021/01/01 08:12:57;;;;;;;46.27;25.57;;;1.30;64.60;;;;;;6216391;23;20005;-84
2021/01/01 08:15:32;;;;;;;49.33;26.37;;;1.40;64.60;;;;;;6188893;23;20255;-84
2021/01/01 08:18:12;;;;;;;43.73;24.70;;;1.40;64.70;;;;;;6190186;23;20618;-84
2021/01/01 08:20:38;;;;;;;41.70;24.20;;;1.30;64.80;;;;;;6215829;23;20409;-84
2021/01/01 08:23:10;;;;;;;42.37;24.07;;;1.40;65.40;;;;;;6189720;23;20381;-84
2021/01/01 08:25:36;;;;;;;41.20;23.70;;;1.40;64.80;;;;;;6188986;23;20431;-84
2021/01/01 08:28:07;;;;;;;40.03;23.10;;;1.30;64.70;;;;;;6189115;23;20343;-84
2021/01/01 08:30:37;;;;;;;39.17;22.90;;;1.40;64.80;;;;;;6188470;23;20008;-84
2021/01/01 08:33:08;;;;;;;39.90;21.83;;;1.40;64.80;;;;;;6186761;23;20447;-84
2021/01/01 08:35:34;;;;;;;44.83;26.17;;;1.50;64.70;;;;;;6186758;23;20012;-84
2021/01/01 08:38:13;;;;;;;49.57;29.00;;;1.50;64.60;;;;;;6212373;23;20423;-85
2021/01/01 08:40:42;;;;;;;43.43;23.37;;;1.50;64.60;;;;;;6187103;23;20004;-84
2021/01/01 08:43:08;;;;;;;48.10;24.70;;;1.50;64.50;;;;;;6216394;23;20090;-84
2021/01/01 08:45:34;;;;;;;41.17;23.80;;;1.60;64.60;;;;;;6188065;23;20004;-84
2021/01/01 08:48:09;;;;;;;38.23;21.67;;;1.70;64.50;;;;;;6188707;23;20078;-84
2021/01/01 08:50:49;;;;;;;40.37;22.47;;;1.70;64.50;;;;;;6188879;23;20076;-84
2021/01/01 08:53:17;;;;;;;39.47;21.00;;;1.70;64.40;;;;;;6190147;23;20379;-84
2021/01/01 08:55:43;;;;;;;39.43;24.03;;;1.80;64.40;;;;;;6188468;23;20012;-83
2021/01/01 08:58:11;;;;;;;42.33;25.03;;;1.90;64.30;;;;;;6188184;23;20009;-83
2021/01/01 09:00:39;;;;;;;40.07;23.97;;;1.90;64.10;;;;;;6216645;23;20000;-85
2021/01/01 09:03:06;;;;;;;42.10;24.40;;;2.00;64.10;;;;;;6190025;23;20064;-84
2021/01/01 09:05:32;;;;;;;43.03;24.13;;;2.00;64.10;;;;;;6189459;23;20009;-85
2021/01/01 09:08:13;;;;;;;41.57;23.43;;;2.10;64.20;;;;;;6216659;23;20028;-84
2021/01/01 09:10:45;;;;;;;37.30;23.33;;;2.10;64.10;;;;;;6189811;23;20024;-84
2021/01/01 09:13:23;;;;;;;43.47;24.10;;;2.20;64.10;;;;;;6190762;23;20008;-85
2021/01/01 09:16:01;;;;;;;40.43;23.07;;;2.30;64.00;;;;;;6191737;23;20008;-85
2021/01/01 09:18:28;;;;;;;38.40;23.67;;;2.30;63.80;;;;;;6191465;23;20008;-85
2021/01/01 09:21:09;;;;;;;41.97;23.63;;;2.40;63.90;;;;;;6218736;23;19997;-85
2021/01/01 09:23:35;;;;;;;38.10;22.10;;;2.50;63.60;;;;;;6191825;23;20380;-85
2021/01/01 09:26:00;;;;;;;40.50;22.13;;;2.60;63.40;;;;;;6192020;23;20004;-85
2021/01/01 09:28:26;;;;;;;41.13;20.27;;;2.70;63.30;;;;;;6194549;23;20335;-86
2021/01/01 09:30:52;;;;;;;36.73;21.27;;;2.80;63.20;;;;;;6192735;23;20020;-85
2021/01/01 09:33:20;;;;;;;36.97;20.43;;;3.00;63.00;;;;;;6192759;23;20009;-85
2021/01/01 09:35:46;;;;;;;34.00;20.23;;;3.20;62.60;;;;;;6192493;23;20019;-85
2021/01/01 09:38:11;;;;;;;38.10;20.70;;;3.40;62.30;;;;;;6191044;23;20776;-85
2021/01/01 09:40:37;;;;;;;42.27;22.30;;;3.60;62.00;;;;;;6189188;23;20067;-85
2021/01/01 09:43:07;;;;;;;38.83;21.13;;;3.80;61.80;;;;;;6192811;23;20016;-85
2021/01/01 09:45:34;;;;;;;33.70;19.27;;;3.80;61.40;;;;;;6193837;23;20483;-85
2021/01/01 09:47:59;;;;;;;29.33;18.60;;;3.90;61.20;;;;;;6192009;23;20004;-85
2021/01/01 09:50:25;;;;;;;32.57;18.03;;;4.00;60.90;;;;;;6192052;23;20016;-85
2021/01/01 09:52:51;;;;;;;24.93;14.20;;;4.10;60.70;;;;;;6190484;23;20008;-85
2021/01/01 09:55:17;;;;;;;18.50;12.47;;;4.20;60.50;;;;;;6217496;23;20001;-85
2021/01/01 09:57:42;;;;;;;27.47;15.17;;;4.30;59.90;;;;;;6218122;23;20015;-85
2021/01/01 10:00:10;;;;;;;19.93;11.83;;;4.30;59.60;;;;;;6191715;23;20008;-85
2021/01/01 10:02:37;;;;;;;24.27;13.90;;;4.30;59.30;;;;;;6192574;23;20000;-85
2021/01/01 10:05:04;;;;;;;28.87;17.83;;;4.40;59.30;;;;;;6192592;23;20028;-85
2021/01/01 10:07:30;;;;;;;33.53;17.47;;;4.50;58.90;;;;;;6191083;23;20008;-84
2021/01/01 10:09:56;;;;;;;28.63;17.27;;;4.60;58.80;;;;;;6189427;23;20008;-84
2021/01/01 10:12:22;;;;;;;31.23;16.53;;;4.70;58.70;;;;;;6189966;23;20028;-84
2021/01/01 10:14:50;;;;;;;24.03;14.40;;;5.00;58.50;;;;;;6191399;23;20083;-84
2021/01/01 10:17:17;;;;;;;22.73;13.27;;;5.20;58.10;;;;;;6220246;23;20004;-85
2021/01/01 10:19:42;;;;;;;19.67;10.83;;;5.40;57.60;;;;;;6191478;23;20018;-85
2021/01/01 10:22:08;;;;;;;15.57;9.23;;;5.50;56.90;;;;;;6193445;23;20072;-84
2021/01/01 10:24:34;;;;;;;18.03;9.97;;;5.60;56.80;;;;;;6192848;23;20008;-84
2021/01/01 10:27:00;;;;;;;17.90;10.13;;;5.70;56.60;;;;;;6217337;23;19997;-84
2021/01/01 10:29:26;;;;;;;17.77;12.27;;;5.80;55.90;;;;;;6190621;23;20004;-84
2021/01/01 10:31:52;;;;;;;19.83;12.97;;;5.80;55.60;;;;;;6189537;23;20442;-84
2021/01/01 10:34:21;;;;;;;26.93;12.77;;;6.00;55.70;;;;;;6191619;23;20007;-84
2021/01/01 10:36:52;;;;;;;22.43;12.90;;;6.30;55.40;;;;;;6186958;23;20008;-85
2021/01/01 10:39:18;;;;;;;23.50;14.97;;;6.50;54.60;;;;;;6217966;23;20011;-85
2021/01/01 10:41:48;;;;;;;23.23;14.53;;;6.60;54.50;;;;;;6176185;23;20389;-85
2021/01/01 10:44:14;;;;;;;28.17;15.77;;;6.80;54.20;;;;;;6163674;23;20005;-85
2021/01/01 10:46:40;;;;;;;32.40;16.97;;;6.90;54.20;;;;;;6162147;23;20011;-85
2021/01/01 10:49:06;;;;;;;39.37;20.43;;;7.00;53.90;;;;;;6161992;23;20040;-85
2021/01/01 10:51:32;;;;;;;52.93;26.20;;;6.90;53.80;;;;;;6161929;23;20013;-85
2021/01/01 10:53:58;;;;;;;43.43;22.33;;;6.90;53.90;;;;;;6161741;23;20008;-85
2021/01/01 10:56:28;;;;;;;43.77;20.30;;;7.00;54.10;;;;;;6161929;23;20035;-85
2021/01/01 10:58:54;;;;;;;32.50;17.17;;;7.10;53.50;;;;;;6189371;23;20005;-85
2021/01/01 11:01:21;;;;;;;31.67;15.27;;;7.00;53.40;;;;;;6162649;23;20428;-85
2021/01/01 11:03:48;;;;;;;25.77;14.10;;;7.00;53.80;;;;;;6160848;23;20055;-85
2021/01/01 11:06:15;;;;;;;29.93;14.97;;;7.10;53.70;;;;;;6162080;23;20001;-85
2021/01/01 11:08:42;;;;;;;30.20;14.23;;;7.30;53.50;;;;;;6162440;23;20009;-85
2021/01/01 11:11:10;;;;;;;97.17;46.03;;;7.20;53.10;;;;;;6162117;23;20008;-85
2021/01/01 11:13:42;;;;;;;24.73;13.87;;;7.10;52.80;;;;;;6162448;23;20025;-85
2021/01/01 12:22:47;;;;;;;11.17;6.10;;;8.40;49.10;;;;;;6219605;23;20046;-84
2021/01/01 12:25:14;;;;;;;10.33;5.93;;;8.50;49.10;;;;;;6192338;23;20012;-85
2021/01/01 12:27:42;;;;;;;11.67;5.93;;;8.50;49.00;;;;;;6193243;23;20011;-84
2021/01/01 12:30:09;;;;;;;8.73;5.67;;;8.60;48.70;;;;;;6195103;23;20015;-84
2021/01/01 12:32:37;;;;;;;10.53;6.07;;;8.60;48.70;;;;;;6194637;23;20005;-84
2021/01/01 12:35:04;;;;;;;10.97;5.73;;;8.70;48.50;;;;;;6192812;23;20032;-84
2021/01/01 12:37:30;;;;;;;13.80;6.07;;;8.60;48.40;;;;;;6190307;23;20009;-84
2021/01/01 12:39:56;;;;;;;11.00;5.70;;;8.70;48.30;;;;;;6218009;23;20038;-84
2021/01/01 12:42:22;;;;;;;13.07;5.73;;;8.70;48.10;;;;;;6168294;23;20021;-85
2021/01/01 12:44:48;;;;;;;14.87;5.27;;;8.60;48.20;;;;;;6164421;23;20021;-85
2021/01/01 12:47:14;;;;;;;11.90;6.67;;;8.40;48.10;;;;;;6163646;23;20001;-85
2021/01/01 12:49:42;;;;;;;10.97;6.60;;;8.30;48.10;;;;;;6165935;23;20013;-85
2021/01/01 12:52:08;;;;;;;10.07;6.87;;;8.20;48.30;;;;;;6165004;23;20009;-85
2021/01/01 12:54:34;;;;;;;9.87;6.63;;;8.20;48.40;;;;;;6162224;23;20694;-85
2021/01/01 12:56:59;;;;;;;13.27;6.00;;;8.00;48.50;;;;;;6188735;23;20005;-85
2021/01/01 12:59:25;;;;;;;18.73;9.97;;;8.00;48.60;;;;;;6163326;23;20016;-85
2021/01/01 13:01:51;;;;;;;17.83;7.17;;;8.00;48.60;;;;;;6164283;23;20060;-85
2021/01/01 13:04:17;;;;;;;12.50;6.20;;;8.10;48.60;;;;;;6165094;23;20008;-85
2021/01/01 13:06:42;;;;;;;11.43;5.20;;;8.20;48.50;;;;;;6166583;23;20020;-85
2021/01/01 13:09:08;;;;;;;8.77;4.93;;;8.20;48.50;;;;;;6190365;23;20059;-85
2021/01/01 13:11:34;;;;;;;8.37;4.30;;;8.20;48.40;;;;;;6164603;23;20068;-85
2021/01/01 13:13:59;;;;;;;9.73;4.37;;;8.20;48.20;;;;;;6163402;23;20455;-84
2021/01/01 13:16:27;;;;;;;6.77;3.50;;;8.10;48.10;;;;;;6163048;23;20397;-84
2021/01/01 13:18:54;;;;;;;7.13;3.47;;;8.00;48.20;;;;;;6188934;23;20016;-84
2021/01/01 13:21:30;;;;;;;6.27;3.30;;;8.10;48.10;;;;;;6161820;23;20106;-84
2021/01/01 13:23:57;;;;;;;7.50;2.70;;;8.00;47.70;;;;;;6162179;23;20028;-84
2021/01/01 13:26:26;;;;;;;7.97;2.47;;;8.00;47.80;;;;;;6163567;23;20040;-84
2021/01/01 13:28:54;;;;;;;4.53;2.73;;;8.00;47.80;;;;;;6160473;23;20013;-84
2021/01/01 13:31:21;;;;;;;3.73;2.17;;;8.10;47.50;;;;;;6163576;23;20005;-84
2021/01/01 13:33:48;;;;;;;4.97;2.20;;;8.10;47.20;;;;;;6186030;23;20399;-84
2021/01/01 13:36:15;;;;;;;3.10;2.10;;;8.00;47.10;;;;;;6161980;23;20024;-84
2021/01/01 13:38:42;;;;;;;5.07;2.50;;;8.00;47.00;;;;;;6161307;23;20088;-84
2021/01/01 13:41:10;;;;;;;7.23;2.47;;;8.00;47.10;;;;;;6162875;23;20009;-84
2021/01/01 13:43:40;;;;;;;5.67;2.47;;;7.90;47.10;;;;;;6188966;23;20001;-85
2021/01/01 13:46:07;;;;;;;3.43;2.20;;;7.90;47.30;;;;;;6163076;23;20013;-84
2021/01/01 13:48:34;;;;;;;4.40;2.27;;;7.80;47.30;;;;;;6163451;23;20009;-84